Aviation Digital Data Service (ADDS)

Output produced by METARs form (1821 UTC 19 April 2019)
found at http://www.aviationweather.gov/metar/data/
 
METAR text: NCRG 191800Z AUTO 14011G21KT 080V190 9999 BKN050/// 24/19 Q1013
Conditions at: NCRG (RAROTONGA COOK I, WS) observed 1800 UTC 19 April 2019
Temperature: 24.0°C (75°F)
Dewpoint: 19.0°C (66°F) [RH = 74%]
Pressure (altimeter): 29.91 inches Hg (1013.0 mb)
Winds: from the SE (140 degrees) at 13 MPH (11 knots; 5.7 m/s)
gusting to 24 MPH (21 knots; 10.8 m/s)
Visibility: 6 or more miles (10+ km)
Ceiling: 5000 feet AGL
Clouds: broken clouds at 5000 feet AGL
Weather: no significant weather observed at this time

METAR text: NCRG 191730Z AUTO 14009KT 080V200 9999 -RA BKN050/// 24/18 Q1012
Conditions at: NCRG (RAROTONGA COOK I, WS) observed 1730 UTC 19 April 2019
Temperature: 24.0°C (75°F)
Dewpoint: 18.0°C (64°F) [RH = 69%]
Pressure (altimeter): 29.88 inches Hg (1012.0 mb)
Winds: from the SE (140 degrees) at 10 MPH (9 knots; 4.6 m/s)
Visibility: 6 or more miles (10+ km)
Ceiling: 5000 feet AGL
Clouds: broken clouds at 5000 feet AGL
Weather: -RA  (light rain)

METAR text: NCRG 191700Z AUTO 13009KT 090V180 6000 -RA FEW016/// SCT030/// OVC050/// 23/19 Q1012
Conditions at: NCRG (RAROTONGA COOK I, WS) observed 1700 UTC 19 April 2019
Temperature: 23.0°C (73°F)
Dewpoint: 19.0°C (66°F) [RH = 78%]
Pressure (altimeter): 29.88 inches Hg (1012.0 mb)
Winds: from the SE (130 degrees) at 10 MPH (9 knots; 4.6 m/s)
Visibility: 4 miles ( 6 km)
Ceiling: 5000 feet AGL
Clouds: few clouds at 1600 feet AGL
scattered clouds at 3000 feet AGL
overcast cloud deck at 5000 feet AGL
Weather: -RA  (light rain)

METAR text: NCRG 191630Z AUTO 15009KT 080V200 9999 -RA BKN050/// 23/19 Q1012
Conditions at: NCRG (RAROTONGA COOK I, WS) observed 1630 UTC 19 April 2019
Temperature: 23.0°C (73°F)
Dewpoint: 19.0°C (66°F) [RH = 78%]
Pressure (altimeter): 29.88 inches Hg (1012.0 mb)
Winds: from the SSE (150 degrees) at 10 MPH (9 knots; 4.6 m/s)
Visibility: 6 or more miles (10+ km)
Ceiling: 5000 feet AGL
Clouds: broken clouds at 5000 feet AGL
Weather: -RA  (light rain)

METAR text: NCRG 191600Z AUTO 14010G20KT 070V190 9999 BKN048/// 23/19 Q1011
Conditions at: NCRG (RAROTONGA COOK I, WS) observed 1600 UTC 19 April 2019
Temperature: 23.0°C (73°F)
Dewpoint: 19.0°C (66°F) [RH = 78%]
Pressure (altimeter): 29.85 inches Hg (1011.0 mb)
Winds: from the SE (140 degrees) at 12 MPH (10 knots; 5.1 m/s)
gusting to 23 MPH (20 knots; 10.3 m/s)
Visibility: 6 or more miles (10+ km)
Ceiling: 4800 feet AGL
Clouds: broken clouds at 4800 feet AGL
Weather: no significant weather observed at this time

METAR text: NCRG 191530Z AUTO 14008KT 080V220 9999 -DZ BKN047/// 23/20 Q1011 REDZ
Conditions at: NCRG (RAROTONGA COOK I, WS) observed 1530 UTC 19 April 2019
Temperature: 23.0°C (73°F)
Dewpoint: 20.0°C (68°F) [RH = 83%]
Pressure (altimeter): 29.85 inches Hg (1011.0 mb)
Winds: from the SE (140 degrees) at 9 MPH (8 knots; 4.1 m/s)
Visibility: 6 or more miles (10+ km)
Ceiling: 4700 feet AGL
Clouds: broken clouds at 4700 feet AGL
Weather: -DZ  (light drizzle)

METAR text: NCRG 191500Z AUTO 14009KT 100V190 8000 -DZ OVC046/// 23/20 Q1011
Conditions at: NCRG (RAROTONGA COOK I, WS) observed 1500 UTC 19 April 2019
Temperature: 23.0°C (73°F)
Dewpoint: 20.0°C (68°F) [RH = 83%]
Pressure (altimeter): 29.85 inches Hg (1011.0 mb)
Winds: from the SE (140 degrees) at 10 MPH (9 knots; 4.6 m/s)
Visibility: 5 miles ( 8 km)
Ceiling: 4600 feet AGL
Clouds: overcast cloud deck at 4600 feet AGL
Weather: -DZ  (light drizzle)

METAR text: NCRG 191430Z AUTO 11007KT 050V190 9999 FEW013/// OVC047/// 23/20 Q1011
Conditions at: NCRG (RAROTONGA COOK I, WS) observed 1430 UTC 19 April 2019
Temperature: 23.0°C (73°F)
Dewpoint: 20.0°C (68°F) [RH = 83%]
Pressure (altimeter): 29.85 inches Hg (1011.0 mb)
Winds: from the ESE (110 degrees) at 8 MPH (7 knots; 3.6 m/s)
Visibility: 6 or more miles (10+ km)
Ceiling: 4700 feet AGL
Clouds: few clouds at 1300 feet AGL
overcast cloud deck at 4700 feet AGL
Weather: no significant weather observed at this time

METAR text: NCRG 191400Z AUTO 13010G21KT 090V190 9999 BKN045/// 22/20 Q1011
Conditions at: NCRG (RAROTONGA COOK I, WS) observed 1400 UTC 19 April 2019
Temperature: 22.0°C (72°F)
Dewpoint: 20.0°C (68°F) [RH = 88%]
Pressure (altimeter): 29.85 inches Hg (1011.0 mb)
Winds: from the SE (130 degrees) at 12 MPH (10 knots; 5.1 m/s)
gusting to 24 MPH (21 knots; 10.8 m/s)
Visibility: 6 or more miles (10+ km)
Ceiling: 4500 feet AGL
Clouds: broken clouds at 4500 feet AGL
Weather: no significant weather observed at this time

METAR text: NCRG 191330Z AUTO 12007KT 040V200 9999 OVC045/// 23/20 Q1012
Conditions at: NCRG (RAROTONGA COOK I, WS) observed 1330 UTC 19 April 2019
Temperature: 23.0°C (73°F)
Dewpoint: 20.0°C (68°F) [RH = 83%]
Pressure (altimeter): 29.88 inches Hg (1012.0 mb)
Winds: from the ESE (120 degrees) at 8 MPH (7 knots; 3.6 m/s)
Visibility: 6 or more miles (10+ km)
Ceiling: 4500 feet AGL
Clouds: overcast cloud deck at 4500 feet AGL
Weather: no significant weather observed at this time

METAR text: NCRG 191300Z AUTO 12008KT 060V180 9999 FEW008/// BKN045/// OVC055/// 23/20 Q1012
Conditions at: NCRG (RAROTONGA COOK I, WS) observed 1300 UTC 19 April 2019
Temperature: 23.0°C (73°F)
Dewpoint: 20.0°C (68°F) [RH = 83%]
Pressure (altimeter): 29.88 inches Hg (1012.0 mb)
Winds: from the ESE (120 degrees) at 9 MPH (8 knots; 4.1 m/s)
Visibility: 6 or more miles (10+ km)
Ceiling: 4500 feet AGL
Clouds: few clouds at 800 feet AGL
broken clouds at 4500 feet AGL
overcast cloud deck at 5500 feet AGL
Weather: no significant weather observed at this time

METAR text: NCRG 191230Z AUTO 12011G24KT 080V170 9999 FEW009/// BKN047/// 23/19 Q1012
Conditions at: NCRG (RAROTONGA COOK I, WS) observed 1230 UTC 19 April 2019
Temperature: 23.0°C (73°F)
Dewpoint: 19.0°C (66°F) [RH = 78%]
Pressure (altimeter): 29.88 inches Hg (1012.0 mb)
Winds: from the ESE (120 degrees) at 13 MPH (11 knots; 5.7 m/s)
gusting to 28 MPH (24 knots; 12.3 m/s)
Visibility: 6 or more miles (10+ km)
Ceiling: 4700 feet AGL
Clouds: few clouds at 900 feet AGL
broken clouds at 4700 feet AGL
Weather: no significant weather observed at this time

METAR text: NCRG 191200Z AUTO 10005KT 040V200 9999 FEW014/// OVC060/// 22/19 Q1012
Conditions at: NCRG (RAROTONGA COOK I, WS) observed 1200 UTC 19 April 2019
Temperature: 22.0°C (72°F)
Dewpoint: 19.0°C (66°F) [RH = 83%]
Pressure (altimeter): 29.88 inches Hg (1012.0 mb)
Winds: from the E (100 degrees) at 6 MPH (5 knots; 2.6 m/s)
Visibility: 6 or more miles (10+ km)
Ceiling: 6000 feet AGL
Clouds: few clouds at 1400 feet AGL
overcast cloud deck at 6000 feet AGL
Weather: no significant weather observed at this time

METAR text: NCRG 191130Z AUTO 09006KT 020V150 9999 BKN046/// BKN060/// 23/19 Q1012
Conditions at: NCRG (RAROTONGA COOK I, WS) observed 1130 UTC 19 April 2019
Temperature: 23.0°C (73°F)
Dewpoint: 19.0°C (66°F) [RH = 78%]
Pressure (altimeter): 29.88 inches Hg (1012.0 mb)
Winds: from the E (90 degrees) at 7 MPH (6 knots; 3.1 m/s)
Visibility: 6 or more miles (10+ km)
Ceiling: 4600 feet AGL
Clouds: broken clouds at 4600 feet AGL
broken clouds at 6000 feet AGL
Weather: no significant weather observed at this time

METAR text: NCRG 191100Z AUTO 10006KT 050V200 9999 BKN010/// BKN014/// OVC046/// 22/20 Q1012
Conditions at: NCRG (RAROTONGA COOK I, WS) observed 1100 UTC 19 April 2019
Temperature: 22.0°C (72°F)
Dewpoint: 20.0°C (68°F) [RH = 88%]
Pressure (altimeter): 29.88 inches Hg (1012.0 mb)
Winds: from the E (100 degrees) at 7 MPH (6 knots; 3.1 m/s)
Visibility: 6 or more miles (10+ km)
Ceiling: 1000 feet AGL
Clouds: broken clouds at 1000 feet AGL
broken clouds at 1400 feet AGL
overcast cloud deck at 4600 feet AGL
Weather: no significant weather observed at this time

METAR text: NCRG 191030Z AUTO 11007KT 9999 -RA FEW010/// BKN015/// OVC048/// 22/20 Q1012
Conditions at: NCRG (RAROTONGA COOK I, WS) observed 1030 UTC 19 April 2019
Temperature: 22.0°C (72°F)
Dewpoint: 20.0°C (68°F) [RH = 88%]
Pressure (altimeter): 29.88 inches Hg (1012.0 mb)
Winds: from the ESE (110 degrees) at 8 MPH (7 knots; 3.6 m/s)
Visibility: 6 or more miles (10+ km)
Ceiling: 1500 feet AGL
Clouds: few clouds at 1000 feet AGL
broken clouds at 1500 feet AGL
overcast cloud deck at 4800 feet AGL
Weather: -RA  (light rain)

METAR text: NCRG 191000Z AUTO 09006KT 030V140 9999 -RA FEW010/// BKN016/// BKN047/// 22/21 Q1012 REDZ
Conditions at: NCRG (RAROTONGA COOK I, WS) observed 1000 UTC 19 April 2019
Temperature: 22.0°C (72°F)
Dewpoint: 21.0°C (70°F) [RH = 94%]
Pressure (altimeter): 29.88 inches Hg (1012.0 mb)
Winds: from the E (90 degrees) at 7 MPH (6 knots; 3.1 m/s)
Visibility: 6 or more miles (10+ km)
Ceiling: 1600 feet AGL
Clouds: few clouds at 1000 feet AGL
broken clouds at 1600 feet AGL
broken clouds at 4700 feet AGL
Weather: -RA  (light rain)

METAR text: NCRG 190930Z AUTO 10006KT 050V180 9999 DZ FEW010/// BKN016/// OVC065/// 23/20 Q1012
Conditions at: NCRG (RAROTONGA COOK I, WS) observed 0930 UTC 19 April 2019
Temperature: 23.0°C (73°F)
Dewpoint: 20.0°C (68°F) [RH = 83%]
Pressure (altimeter): 29.88 inches Hg (1012.0 mb)
Winds: from the E (100 degrees) at 7 MPH (6 knots; 3.1 m/s)
Visibility: 6 or more miles (10+ km)
Ceiling: 1600 feet AGL
Clouds: few clouds at 1000 feet AGL
broken clouds at 1600 feet AGL
overcast cloud deck at 6500 feet AGL
Weather: DZ  (moderate drizzle)

METAR text: NCRG 190900Z AUTO 10008G19KT 060V170 9999 DZ BKN017/// OVC050/// 23/20 Q1012
Conditions at: NCRG (RAROTONGA COOK I, WS) observed 0900 UTC 19 April 2019
Temperature: 23.0°C (73°F)
Dewpoint: 20.0°C (68°F) [RH = 83%]
Pressure (altimeter): 29.88 inches Hg (1012.0 mb)
Winds: from the E (100 degrees) at 9 MPH (8 knots; 4.1 m/s)
gusting to 22 MPH (19 knots; 9.8 m/s)
Visibility: 6 or more miles (10+ km)
Ceiling: 1700 feet AGL
Clouds: broken clouds at 1700 feet AGL
overcast cloud deck at 5000 feet AGL
Weather: DZ  (moderate drizzle)

METAR text: NCRG 190830Z AUTO 10008G20KT 060V190 9999 DZ SCT014/// BKN019/// BKN055/// 23/20 Q1012
Conditions at: NCRG (RAROTONGA COOK I, WS) observed 0830 UTC 19 April 2019
Temperature: 23.0°C (73°F)
Dewpoint: 20.0°C (68°F) [RH = 83%]
Pressure (altimeter): 29.88 inches Hg (1012.0 mb)
Winds: from the E (100 degrees) at 9 MPH (8 knots; 4.1 m/s)
gusting to 23 MPH (20 knots; 10.3 m/s)
Visibility: 6 or more miles (10+ km)
Ceiling: 1900 feet AGL
Clouds: scattered clouds at 1400 feet AGL
broken clouds at 1900 feet AGL
broken clouds at 5500 feet AGL
Weather: DZ  (moderate drizzle)

METAR text: NCRG 190800Z AUTO 12011G23KT 070V210 9999 DZ FEW010/// SCT014/// OVC060/// 23/20 Q1012
Conditions at: NCRG (RAROTONGA COOK I, WS) observed 0800 UTC 19 April 2019
Temperature: 23.0°C (73°F)
Dewpoint: 20.0°C (68°F) [RH = 83%]
Pressure (altimeter): 29.88 inches Hg (1012.0 mb)
Winds: from the ESE (120 degrees) at 13 MPH (11 knots; 5.7 m/s)
gusting to 26 MPH (23 knots; 11.8 m/s)
Visibility: 6 or more miles (10+ km)
Ceiling: 6000 feet AGL
Clouds: few clouds at 1000 feet AGL
scattered clouds at 1400 feet AGL
overcast cloud deck at 6000 feet AGL
Weather: DZ  (moderate drizzle)

METAR text: NCRG 190730Z AUTO 13012G25KT 090V180 9999 DZ FEW012/// SCT017/// OVC060/// 23/20 Q1012
Conditions at: NCRG (RAROTONGA COOK I, WS) observed 0730 UTC 19 April 2019
Temperature: 23.0°C (73°F)
Dewpoint: 20.0°C (68°F) [RH = 83%]
Pressure (altimeter): 29.88 inches Hg (1012.0 mb)
Winds: from the SE (130 degrees) at 14 MPH (12 knots; 6.2 m/s)
gusting to 29 MPH (25 knots; 12.9 m/s)
Visibility: 6 or more miles (10+ km)
Ceiling: 6000 feet AGL
Clouds: few clouds at 1200 feet AGL
scattered clouds at 1700 feet AGL
overcast cloud deck at 6000 feet AGL
Weather: DZ  (moderate drizzle)

METAR text: NCRG 190700Z AUTO 13011G25KT 080V180 3600 -RA HZ FEW008/// BKN013/// 23/21 Q1012 REDZ
Conditions at: NCRG (RAROTONGA COOK I, WS) observed 0700 UTC 19 April 2019
Temperature: 23.0°C (73°F)
Dewpoint: 21.0°C (70°F) [RH = 89%]
Pressure (altimeter): 29.88 inches Hg (1012.0 mb)
Winds: from the SE (130 degrees) at 13 MPH (11 knots; 5.7 m/s)
gusting to 29 MPH (25 knots; 12.9 m/s)
Visibility: 2.24 miles (3.60 km)
Ceiling: 1300 feet AGL
Clouds: few clouds at 800 feet AGL
broken clouds at 1300 feet AGL
Weather: -RA HZ  (light rain, haze)

METAR text: NCRG 190630Z AUTO 14010G24KT 070V200 9000 DZ FEW009/// BKN013/// BKN065/// 23/21 Q1011
Conditions at: NCRG (RAROTONGA COOK I, WS) observed 0630 UTC 19 April 2019
Temperature: 23.0°C (73°F)
Dewpoint: 21.0°C (70°F) [RH = 89%]
Pressure (altimeter): 29.85 inches Hg (1011.0 mb)
Winds: from the SE (140 degrees) at 12 MPH (10 knots; 5.1 m/s)
gusting to 28 MPH (24 knots; 12.3 m/s)
Visibility: 6 miles ( 9 km)
Ceiling: 1300 feet AGL
Clouds: few clouds at 900 feet AGL
broken clouds at 1300 feet AGL
broken clouds at 6500 feet AGL
Weather: DZ  (moderate drizzle)

METAR text: NCRG 190600Z AUTO 13011G22KT 090V200 8000 DZ BKN014/// 23/21 Q1011 REDZ
Conditions at: NCRG (RAROTONGA COOK I, WS) observed 0600 UTC 19 April 2019
Temperature: 23.0°C (73°F)
Dewpoint: 21.0°C (70°F) [RH = 89%]
Pressure (altimeter): 29.85 inches Hg (1011.0 mb)
Winds: from the SE (130 degrees) at 13 MPH (11 knots; 5.7 m/s)
gusting to 25 MPH (22 knots; 11.3 m/s)
Visibility: 5 miles ( 8 km)
Ceiling: 1400 feet AGL
Clouds: broken clouds at 1400 feet AGL
Weather: DZ  (moderate drizzle)

METAR text: NCRG 190530Z AUTO 11010G22KT 060V180 9000 +DZ FEW009/// BKN015/// 23/22 Q1011 REDZ
Conditions at: NCRG (RAROTONGA COOK I, WS) observed 0530 UTC 19 April 2019
Temperature: 23.0°C (73°F)
Dewpoint: 22.0°C (72°F) [RH = 94%]
Pressure (altimeter): 29.85 inches Hg (1011.0 mb)
Winds: from the ESE (110 degrees) at 12 MPH (10 knots; 5.1 m/s)
gusting to 25 MPH (22 knots; 11.3 m/s)
Visibility: 6 miles ( 9 km)
Ceiling: 1500 feet AGL
Clouds: few clouds at 900 feet AGL
broken clouds at 1500 feet AGL
Weather: +DZ  (heavy drizzle)

METAR text: NCRG 190500Z AUTO 12014G28KT 080V160 4300 -RA HZ BKN014/// 23/22 Q1010
Conditions at: NCRG (RAROTONGA COOK I, WS) observed 0500 UTC 19 April 2019
Temperature: 23.0°C (73°F)
Dewpoint: 22.0°C (72°F) [RH = 94%]
Pressure (altimeter): 29.82 inches Hg (1010.0 mb)
Winds: from the ESE (120 degrees) at 16 MPH (14 knots; 7.2 m/s)
gusting to 32 MPH (28 knots; 14.4 m/s)
Visibility: 2.67 miles (4.30 km)
Ceiling: 1400 feet AGL
Clouds: broken clouds at 1400 feet AGL
Weather: -RA HZ  (light rain, haze)

METAR text: NCRG 190430Z AUTO 11010G20KT 080V180 8000 RA SCT015/// BKN070/// 24/21 Q1010
Conditions at: NCRG (RAROTONGA COOK I, WS) observed 0430 UTC 19 April 2019
Temperature: 24.0°C (75°F)
Dewpoint: 21.0°C (70°F) [RH = 83%]
Pressure (altimeter): 29.82 inches Hg (1010.0 mb)
Winds: from the ESE (110 degrees) at 12 MPH (10 knots; 5.1 m/s)
gusting to 23 MPH (20 knots; 10.3 m/s)
Visibility: 5 miles ( 8 km)
Ceiling: 7000 feet AGL
Clouds: scattered clouds at 1500 feet AGL
broken clouds at 7000 feet AGL
Weather: RA  (moderate rain)

METAR text: NCRG 190400Z AUTO 13012KT 080V200 9999 -RA SCT012/// SCT055/// BKN080/// 24/22 Q1010
Conditions at: NCRG (RAROTONGA COOK I, WS) observed 0400 UTC 19 April 2019
Temperature: 24.0°C (75°F)
Dewpoint: 22.0°C (72°F) [RH = 89%]
Pressure (altimeter): 29.82 inches Hg (1010.0 mb)
Winds: from the SE (130 degrees) at 14 MPH (12 knots; 6.2 m/s)
Visibility: 6 or more miles (10+ km)
Ceiling: 8000 feet AGL
Clouds: scattered clouds at 1200 feet AGL
scattered clouds at 5500 feet AGL
broken clouds at 8000 feet AGL
Weather: -RA  (light rain)

METAR text: NCRG 190330Z AUTO 13012G25KT 080V180 8000 -RA FEW008/// BKN050/// OVC085/// 24/22 Q1010
Conditions at: NCRG (RAROTONGA COOK I, WS) observed 0330 UTC 19 April 2019
Temperature: 24.0°C (75°F)
Dewpoint: 22.0°C (72°F) [RH = 89%]
Pressure (altimeter): 29.82 inches Hg (1010.0 mb)
Winds: from the SE (130 degrees) at 14 MPH (12 knots; 6.2 m/s)
gusting to 29 MPH (25 knots; 12.9 m/s)
Visibility: 5 miles ( 8 km)
Ceiling: 5000 feet AGL
Clouds: few clouds at 800 feet AGL
broken clouds at 5000 feet AGL
overcast cloud deck at 8500 feet AGL
Weather: -RA  (light rain)

METAR text: NCRG 190300Z AUTO 14014G26KT 100V200 9999 -RA FEW010/// BKN060/// OVC090/// 24/22 Q1009
Conditions at: NCRG (RAROTONGA COOK I, WS) observed 0300 UTC 19 April 2019
Temperature: 24.0°C (75°F)
Dewpoint: 22.0°C (72°F) [RH = 89%]
Pressure (altimeter): 29.79 inches Hg (1009.0 mb)
Winds: from the SE (140 degrees) at 16 MPH (14 knots; 7.2 m/s)
gusting to 30 MPH (26 knots; 13.4 m/s)
Visibility: 6 or more miles (10+ km)
Ceiling: 6000 feet AGL
Clouds: few clouds at 1000 feet AGL
broken clouds at 6000 feet AGL
overcast cloud deck at 9000 feet AGL
Weather: -RA  (light rain)

METAR text: NCRG 190230Z AUTO 14014G27KT 090V190 9999 RA SCT050/// SCT065/// BKN090/// 24/22 Q1009
Conditions at: NCRG (RAROTONGA COOK I, WS) observed 0230 UTC 19 April 2019
Temperature: 24.0°C (75°F)
Dewpoint: 22.0°C (72°F) [RH = 89%]
Pressure (altimeter): 29.79 inches Hg (1009.0 mb)
Winds: from the SE (140 degrees) at 16 MPH (14 knots; 7.2 m/s)
gusting to 31 MPH (27 knots; 13.9 m/s)
Visibility: 6 or more miles (10+ km)
Ceiling: 9000 feet AGL
Clouds: scattered clouds at 5000 feet AGL
scattered clouds at 6500 feet AGL
broken clouds at 9000 feet AGL
Weather: RA  (moderate rain)

METAR text: NCRG 190200Z AUTO 14013G28KT 110V180 9999 RA FEW049/// BKN060/// OVC095/// 24/22 Q1009
Conditions at: NCRG (RAROTONGA COOK I, WS) observed 0200 UTC 19 April 2019
Temperature: 24.0°C (75°F)
Dewpoint: 22.0°C (72°F) [RH = 89%]
Pressure (altimeter): 29.79 inches Hg (1009.0 mb)
Winds: from the SE (140 degrees) at 15 MPH (13 knots; 6.7 m/s)
gusting to 32 MPH (28 knots; 14.4 m/s)
Visibility: 6 or more miles (10+ km)
Ceiling: 6000 feet AGL
Clouds: few clouds at 4900 feet AGL
broken clouds at 6000 feet AGL
overcast cloud deck at 9500 feet AGL
Weather: RA  (moderate rain)

METAR text: NCRG 190130Z AUTO 15014KT 100V200 9999 -RA FEW025/// BKN100/// 24/22 Q1009 RERA
Conditions at: NCRG (RAROTONGA COOK I, WS) observed 0130 UTC 19 April 2019
Temperature: 24.0°C (75°F)
Dewpoint: 22.0°C (72°F) [RH = 89%]
Pressure (altimeter): 29.79 inches Hg (1009.0 mb)
Winds: from the SSE (150 degrees) at 16 MPH (14 knots; 7.2 m/s)
Visibility: 6 or more miles (10+ km)
Ceiling: 10000 feet AGL
Clouds: few clouds at 2500 feet AGL
broken clouds at 10000 feet AGL
Weather: -RA  (light rain)

METAR text: NCRG 190100Z AUTO 15007G17KT 090V200 5000 +RA HZ BKN020/// BKN028/// BKN035/// 24/22 Q1010 RERA
Conditions at: NCRG (RAROTONGA COOK I, WS) observed 0100 UTC 19 April 2019
Temperature: 24.0°C (75°F)
Dewpoint: 22.0°C (72°F) [RH = 89%]
Pressure (altimeter): 29.82 inches Hg (1010.0 mb)
Winds: from the SSE (150 degrees) at 8 MPH (7 knots; 3.6 m/s)
gusting to 20 MPH (17 knots; 8.7 m/s)
Visibility: 3 miles ( 5 km)
Ceiling: 2000 feet AGL
Clouds: broken clouds at 2000 feet AGL
broken clouds at 2800 feet AGL
broken clouds at 3500 feet AGL
Weather: +RA HZ  (heavy rain, haze)

METAR text: NCRG 190030Z AUTO 13003KT 4800 RA HZ BKN016/// BKN023/// OVC030/// 24/23 Q1010
Conditions at: NCRG (RAROTONGA COOK I, WS) observed 0030 UTC 19 April 2019
Temperature: 24.0°C (75°F)
Dewpoint: 23.0°C (73°F) [RH = 94%]
Pressure (altimeter): 29.82 inches Hg (1010.0 mb)
Winds: from the SE (130 degrees) at 3 MPH (3 knots; 1.5 m/s)
Visibility: 2.98 miles (4.80 km)
Ceiling: 1600 feet AGL
Clouds: broken clouds at 1600 feet AGL
broken clouds at 2300 feet AGL
overcast cloud deck at 3000 feet AGL
Weather: RA HZ  (moderate rain, haze)

METAR text: NCRG 190000Z AUTO 13004KT 070V190 7000 -RA SCT019/// BKN036/// 25/23 Q1010
Conditions at: NCRG (RAROTONGA COOK I, WS) observed 0000 UTC 19 April 2019
Temperature: 25.0°C (77°F)
Dewpoint: 23.0°C (73°F) [RH = 89%]
Pressure (altimeter): 29.82 inches Hg (1010.0 mb)
Winds: from the SE (130 degrees) at 5 MPH (4 knots; 2.1 m/s)
Visibility: 4 miles ( 7 km)
Ceiling: 3600 feet AGL
Clouds: scattered clouds at 1900 feet AGL
broken clouds at 3600 feet AGL
Weather: -RA  (light rain)

METAR text: NCRG 182330Z AUTO 12004KT 9999 -RA SCT020/// BKN033/// 25/23 Q1010
Conditions at: NCRG (RAROTONGA COOK I, WS) observed 2330 UTC 18 April 2019
Temperature: 25.0°C (77°F)
Dewpoint: 23.0°C (73°F) [RH = 89%]
Pressure (altimeter): 29.82 inches Hg (1010.0 mb)
Winds: from the ESE (120 degrees) at 5 MPH (4 knots; 2.1 m/s)
Visibility: 6 or more miles (10+ km)
Ceiling: 3300 feet AGL
Clouds: scattered clouds at 2000 feet AGL
broken clouds at 3300 feet AGL
Weather: -RA  (light rain)

METAR text: NCRG 182300Z AUTO 14003KT 080V200 9999 RA BKN018/// BKN025/// 25/23 Q1011
Conditions at: NCRG (RAROTONGA COOK I, WS) observed 2300 UTC 18 April 2019
Temperature: 25.0°C (77°F)
Dewpoint: 23.0°C (73°F) [RH = 89%]
Pressure (altimeter): 29.85 inches Hg (1011.0 mb)
Winds: from the SE (140 degrees) at 3 MPH (3 knots; 1.5 m/s)
Visibility: 6 or more miles (10+ km)
Ceiling: 1800 feet AGL
Clouds: broken clouds at 1800 feet AGL
broken clouds at 2500 feet AGL
Weather: RA  (moderate rain)

METAR text: NCRG 182230Z AUTO 09002KT 9999 -RA FEW020/// BKN033/// OVC043/// 26/24 Q1011
Conditions at: NCRG (RAROTONGA COOK I, WS) observed 2230 UTC 18 April 2019
Temperature: 26.0°C (79°F)
Dewpoint: 24.0°C (75°F) [RH = 89%]
Pressure (altimeter): 29.85 inches Hg (1011.0 mb)
Winds: from the E (90 degrees) at 2 MPH (2 knots; 1.0 m/s)
Visibility: 6 or more miles (10+ km)
Ceiling: 3300 feet AGL
Clouds: few clouds at 2000 feet AGL
broken clouds at 3300 feet AGL
overcast cloud deck at 4300 feet AGL
Weather: -RA  (light rain)

METAR text: NCRG 182200Z AUTO 09007KT 9999 -RA BKN018/// OVC036/// 25/24 Q1011
Conditions at: NCRG (RAROTONGA COOK I, WS) observed 2200 UTC 18 April 2019
Temperature: 25.0°C (77°F)
Dewpoint: 24.0°C (75°F) [RH = 94%]
Pressure (altimeter): 29.85 inches Hg (1011.0 mb)
Winds: from the E (90 degrees) at 8 MPH (7 knots; 3.6 m/s)
Visibility: 6 or more miles (10+ km)
Ceiling: 1800 feet AGL
Clouds: broken clouds at 1800 feet AGL
overcast cloud deck at 3600 feet AGL
Weather: -RA  (light rain)

METAR text: NCRG 182130Z AUTO 10004KT 050V140 9999 -RA SCT015/// BKN020/// OVC095/// 25/24 Q1012 RERA
Conditions at: NCRG (RAROTONGA COOK I, WS) observed 2130 UTC 18 April 2019
Temperature: 25.0°C (77°F)
Dewpoint: 24.0°C (75°F) [RH = 94%]
Pressure (altimeter): 29.88 inches Hg (1012.0 mb)
Winds: from the E (100 degrees) at 5 MPH (4 knots; 2.1 m/s)
Visibility: 6 or more miles (10+ km)
Ceiling: 2000 feet AGL
Clouds: scattered clouds at 1500 feet AGL
broken clouds at 2000 feet AGL
overcast cloud deck at 9500 feet AGL
Weather: -RA  (light rain)

METAR text: NCRG 182100Z AUTO 09004KT 060V150 9999 -RA SCT018/// BKN031/// BKN070/// 25/24 Q1012
Conditions at: NCRG (RAROTONGA COOK I, WS) observed 2100 UTC 18 April 2019
Temperature: 25.0°C (77°F)
Dewpoint: 24.0°C (75°F) [RH = 94%]
Pressure (altimeter): 29.88 inches Hg (1012.0 mb)
Winds: from the E (90 degrees) at 5 MPH (4 knots; 2.1 m/s)
Visibility: 6 or more miles (10+ km)
Ceiling: 3100 feet AGL
Clouds: scattered clouds at 1800 feet AGL
broken clouds at 3100 feet AGL
broken clouds at 7000 feet AGL
Weather: -RA  (light rain)

METAR text: NCRG 182030Z AUTO 26001KT 9999 -RA FEW018/// BKN047/// OVC100/// 25/25 Q1012 RERA
Conditions at: NCRG (RAROTONGA COOK I, WS) observed 2030 UTC 18 April 2019
Temperature: 25.0°C (77°F)
Dewpoint: 25.0°C (77°F) [RH = 100%]
Pressure (altimeter): 29.88 inches Hg (1012.0 mb)
Winds: from the W (260 degrees) at 1 MPH (1 knots; 0.5 m/s)
Visibility: 6 or more miles (10+ km)
Ceiling: 4700 feet AGL
Clouds: few clouds at 1800 feet AGL
broken clouds at 4700 feet AGL
overcast cloud deck at 10000 feet AGL
Weather: -RA  (light rain)

METAR text: NCRG 182000Z AUTO 07002KT 7000 RA BKN016/// BKN023/// 25/25 Q1012 RERA
Conditions at: NCRG (RAROTONGA COOK I, WS) observed 2000 UTC 18 April 2019
Temperature: 25.0°C (77°F)
Dewpoint: 25.0°C (77°F) [RH = 100%]
Pressure (altimeter): 29.88 inches Hg (1012.0 mb)
Winds: from the ENE (70 degrees) at 2 MPH (2 knots; 1.0 m/s)
Visibility: 4 miles ( 7 km)
Ceiling: 1600 feet AGL
Clouds: broken clouds at 1600 feet AGL
broken clouds at 2300 feet AGL
Weather: RA  (moderate rain)

METAR text: NCRG 181930Z AUTO 19002KT 9000 RA FEW022/// BKN028/// 25/24 Q1012 RERA
Conditions at: NCRG (RAROTONGA COOK I, WS) observed 1930 UTC 18 April 2019
Temperature: 25.0°C (77°F)
Dewpoint: 24.0°C (75°F) [RH = 94%]
Pressure (altimeter): 29.88 inches Hg (1012.0 mb)
Winds: from the S (190 degrees) at 2 MPH (2 knots; 1.0 m/s)
Visibility: 6 miles ( 9 km)
Ceiling: 2800 feet AGL
Clouds: few clouds at 2200 feet AGL
broken clouds at 2800 feet AGL
Weather: RA  (moderate rain)

METAR text: NCRG 181900Z AUTO 12003KT 060V180 9999 RA FEW023/// 25/24 Q1012
Conditions at: NCRG (RAROTONGA COOK I, WS) observed 1900 UTC 18 April 2019
Temperature: 25.0°C (77°F)
Dewpoint: 24.0°C (75°F) [RH = 94%]
Pressure (altimeter): 29.88 inches Hg (1012.0 mb)
Winds: from the ESE (120 degrees) at 3 MPH (3 knots; 1.5 m/s)
Visibility: 6 or more miles (10+ km)
Ceiling: at least 12,000 feet AGL
Clouds: few clouds at 2300 feet AGL
Weather: RA  (moderate rain)

METAR text: NCRG 181830Z AUTO 10006KT 080V140 9999 FEW055/// 26/24 Q1012
Conditions at: NCRG (RAROTONGA COOK I, WS) observed 1830 UTC 18 April 2019
Temperature: 26.0°C (79°F)
Dewpoint: 24.0°C (75°F) [RH = 89%]
Pressure (altimeter): 29.88 inches Hg (1012.0 mb)
Winds: from the E (100 degrees) at 7 MPH (6 knots; 3.1 m/s)
Visibility: 6 or more miles (10+ km)
Ceiling: at least 12,000 feet AGL
Clouds: few clouds at 5500 feet AGL
Weather: no significant weather observed at this time

METAR text: NCRG 181800Z AUTO 09007KT 070V140 9999 -RA FEW042/// SCT090/// 26/24 Q1012
Conditions at: NCRG (RAROTONGA COOK I, WS) observed 1800 UTC 18 April 2019
Temperature: 26.0°C (79°F)
Dewpoint: 24.0°C (75°F) [RH = 89%]
Pressure (altimeter): 29.88 inches Hg (1012.0 mb)
Winds: from the E (90 degrees) at 8 MPH (7 knots; 3.6 m/s)
Visibility: 6 or more miles (10+ km)
Ceiling: at least 12,000 feet AGL
Clouds: few clouds at 4200 feet AGL
scattered clouds at 9000 feet AGL
Weather: -RA  (light rain)

METAR text: NCRG 181730Z AUTO 09008KT 9999 SCT055/// 26/24 Q1011
Conditions at: NCRG (RAROTONGA COOK I, WS) observed 1730 UTC 18 April 2019
Temperature: 26.0°C (79°F)
Dewpoint: 24.0°C (75°F) [RH = 89%]
Pressure (altimeter): 29.85 inches Hg (1011.0 mb)
Winds: from the E (90 degrees) at 9 MPH (8 knots; 4.1 m/s)
Visibility: 6 or more miles (10+ km)
Ceiling: at least 12,000 feet AGL
Clouds: scattered clouds at 5500 feet AGL
Weather: no significant weather observed at this time

METAR text: NCRG 181700Z AUTO 09009KT 9999 -RA FEW055/// 25/24 Q1011
Conditions at: NCRG (RAROTONGA COOK I, WS) observed 1700 UTC 18 April 2019
Temperature: 25.0°C (77°F)
Dewpoint: 24.0°C (75°F) [RH = 94%]
Pressure (altimeter): 29.85 inches Hg (1011.0 mb)
Winds: from the E (90 degrees) at 10 MPH (9 knots; 4.6 m/s)
Visibility: 6 or more miles (10+ km)
Ceiling: at least 12,000 feet AGL
Clouds: few clouds at 5500 feet AGL
Weather: -RA  (light rain)

METAR text: NCRG 181630Z AUTO 09008KT 9999 -RA NCD 25/24 Q1011
Conditions at: NCRG (RAROTONGA COOK I, WS) observed 1630 UTC 18 April 2019
Temperature: 25.0°C (77°F)
Dewpoint: 24.0°C (75°F) [RH = 94%]
Pressure (altimeter): 29.85 inches Hg (1011.0 mb)
Winds: from the E (90 degrees) at 9 MPH (8 knots; 4.1 m/s)
Visibility: 6 or more miles (10+ km)
Ceiling: at least 12,000 feet AGL
Clouds: sky clear below 12,000 feet AGL
Weather: -RA  (light rain)

METAR text: NCRG 181600Z AUTO 09008KT 9999 FEW047/// 26/23 Q1011
Conditions at: NCRG (RAROTONGA COOK I, WS) observed 1600 UTC 18 April 2019
Temperature: 26.0°C (79°F)
Dewpoint: 23.0°C (73°F) [RH = 84%]
Pressure (altimeter): 29.85 inches Hg (1011.0 mb)
Winds: from the E (90 degrees) at 9 MPH (8 knots; 4.1 m/s)
Visibility: 6 or more miles (10+ km)
Ceiling: at least 12,000 feet AGL
Clouds: few clouds at 4700 feet AGL
Weather: no significant weather observed at this time

METAR text: NCRG 181530Z AUTO 09009KT 9999 FEW055/// 25/24 Q1011
Conditions at: NCRG (RAROTONGA COOK I, WS) observed 1530 UTC 18 April 2019
Temperature: 25.0°C (77°F)
Dewpoint: 24.0°C (75°F) [RH = 94%]
Pressure (altimeter): 29.85 inches Hg (1011.0 mb)
Winds: from the E (90 degrees) at 10 MPH (9 knots; 4.6 m/s)
Visibility: 6 or more miles (10+ km)
Ceiling: at least 12,000 feet AGL
Clouds: few clouds at 5500 feet AGL
Weather: no significant weather observed at this time

METAR text: NCRG 181500Z AUTO 09008KT 9999 FEW016/// 25/24 Q1011
Conditions at: NCRG (RAROTONGA COOK I, WS) observed 1500 UTC 18 April 2019
Temperature: 25.0°C (77°F)
Dewpoint: 24.0°C (75°F) [RH = 94%]
Pressure (altimeter): 29.85 inches Hg (1011.0 mb)
Winds: from the E (90 degrees) at 9 MPH (8 knots; 4.1 m/s)
Visibility: 6 or more miles (10+ km)
Ceiling: at least 12,000 feet AGL
Clouds: few clouds at 1600 feet AGL
Weather: no significant weather observed at this time

METAR text: NCRG 181430Z AUTO 09008KT 9999 FEW015/// 25/23 Q1011
Conditions at: NCRG (RAROTONGA COOK I, WS) observed 1430 UTC 18 April 2019
Temperature: 25.0°C (77°F)
Dewpoint: 23.0°C (73°F) [RH = 89%]
Pressure (altimeter): 29.85 inches Hg (1011.0 mb)
Winds: from the E (90 degrees) at 9 MPH (8 knots; 4.1 m/s)
Visibility: 6 or more miles (10+ km)
Ceiling: at least 12,000 feet AGL
Clouds: few clouds at 1500 feet AGL
Weather: no significant weather observed at this time

METAR text: NCRG 181400Z AUTO 09008KT 9999 FEW017/// 25/23 Q1011
Conditions at: NCRG (RAROTONGA COOK I, WS) observed 1400 UTC 18 April 2019
Temperature: 25.0°C (77°F)
Dewpoint: 23.0°C (73°F) [RH = 89%]
Pressure (altimeter): 29.85 inches Hg (1011.0 mb)
Winds: from the E (90 degrees) at 9 MPH (8 knots; 4.1 m/s)
Visibility: 6 or more miles (10+ km)
Ceiling: at least 12,000 feet AGL
Clouds: few clouds at 1700 feet AGL
Weather: no significant weather observed at this time

METAR text: NCRG 181330Z AUTO 09008KT 9999 SCT014/// 25/23 Q1012
Conditions at: NCRG (RAROTONGA COOK I, WS) observed 1330 UTC 18 April 2019
Temperature: 25.0°C (77°F)
Dewpoint: 23.0°C (73°F) [RH = 89%]
Pressure (altimeter): 29.88 inches Hg (1012.0 mb)
Winds: from the E (90 degrees) at 9 MPH (8 knots; 4.1 m/s)
Visibility: 6 or more miles (10+ km)
Ceiling: at least 12,000 feet AGL
Clouds: scattered clouds at 1400 feet AGL
Weather: no significant weather observed at this time

METAR text: NCRG 181300Z AUTO 09009KT 9999 FEW014/// 25/23 Q1012
Conditions at: NCRG (RAROTONGA COOK I, WS) observed 1300 UTC 18 April 2019
Temperature: 25.0°C (77°F)
Dewpoint: 23.0°C (73°F) [RH = 89%]
Pressure (altimeter): 29.88 inches Hg (1012.0 mb)
Winds: from the E (90 degrees) at 10 MPH (9 knots; 4.6 m/s)
Visibility: 6 or more miles (10+ km)
Ceiling: at least 12,000 feet AGL
Clouds: few clouds at 1400 feet AGL
Weather: no significant weather observed at this time

METAR text: NCRG 181230Z AUTO 09009KT 9999 BKN016/// BKN100/// 25/23 Q1012
Conditions at: NCRG (RAROTONGA COOK I, WS) observed 1230 UTC 18 April 2019
Temperature: 25.0°C (77°F)
Dewpoint: 23.0°C (73°F) [RH = 89%]
Pressure (altimeter): 29.88 inches Hg (1012.0 mb)
Winds: from the E (90 degrees) at 10 MPH (9 knots; 4.6 m/s)
Visibility: 6 or more miles (10+ km)
Ceiling: 1600 feet AGL
Clouds: broken clouds at 1600 feet AGL
broken clouds at 10000 feet AGL
Weather: no significant weather observed at this time

METAR text: NCRG 181200Z AUTO 09010KT 9999 SCT016/// BKN045/// 25/23 Q1012
Conditions at: NCRG (RAROTONGA COOK I, WS) observed 1200 UTC 18 April 2019
Temperature: 25.0°C (77°F)
Dewpoint: 23.0°C (73°F) [RH = 89%]
Pressure (altimeter): 29.88 inches Hg (1012.0 mb)
Winds: from the E (90 degrees) at 12 MPH (10 knots; 5.1 m/s)
Visibility: 6 or more miles (10+ km)
Ceiling: 4500 feet AGL
Clouds: scattered clouds at 1600 feet AGL
broken clouds at 4500 feet AGL
Weather: no significant weather observed at this time

METAR text: NCRG 181130Z AUTO 08010KT 9999 FEW015/// 25/23 Q1012
Conditions at: NCRG (RAROTONGA COOK I, WS) observed 1130 UTC 18 April 2019
Temperature: 25.0°C (77°F)
Dewpoint: 23.0°C (73°F) [RH = 89%]
Pressure (altimeter): 29.88 inches Hg (1012.0 mb)
Winds: from the E (80 degrees) at 12 MPH (10 knots; 5.1 m/s)
Visibility: 6 or more miles (10+ km)
Ceiling: at least 12,000 feet AGL
Clouds: few clouds at 1500 feet AGL
Weather: no significant weather observed at this time

METAR text: NCRG 181100Z AUTO 08011KT 9999 SCT012/// BKN041/// BKN100/// 25/23 Q1013
Conditions at: NCRG (RAROTONGA COOK I, WS) observed 1100 UTC 18 April 2019
Temperature: 25.0°C (77°F)
Dewpoint: 23.0°C (73°F) [RH = 89%]
Pressure (altimeter): 29.91 inches Hg (1013.0 mb)
Winds: from the E (80 degrees) at 13 MPH (11 knots; 5.7 m/s)
Visibility: 6 or more miles (10+ km)
Ceiling: 4100 feet AGL
Clouds: scattered clouds at 1200 feet AGL
broken clouds at 4100 feet AGL
broken clouds at 10000 feet AGL
Weather: no significant weather observed at this time

METAR text: NCRG 181030Z AUTO 09009KT 9999 FEW014/// 25/23 Q1013
Conditions at: NCRG (RAROTONGA COOK I, WS) observed 1030 UTC 18 April 2019
Temperature: 25.0°C (77°F)
Dewpoint: 23.0°C (73°F) [RH = 89%]
Pressure (altimeter): 29.91 inches Hg (1013.0 mb)
Winds: from the E (90 degrees) at 10 MPH (9 knots; 4.6 m/s)
Visibility: 6 or more miles (10+ km)
Ceiling: at least 12,000 feet AGL
Clouds: few clouds at 1400 feet AGL
Weather: no significant weather observed at this time

METAR text: NCRG 181000Z AUTO 09007KT 9999 -RA BKN075/// 25/23 Q1013
Conditions at: NCRG (RAROTONGA COOK I, WS) observed 1000 UTC 18 April 2019
Temperature: 25.0°C (77°F)
Dewpoint: 23.0°C (73°F) [RH = 89%]
Pressure (altimeter): 29.91 inches Hg (1013.0 mb)
Winds: from the E (90 degrees) at 8 MPH (7 knots; 3.6 m/s)
Visibility: 6 or more miles (10+ km)
Ceiling: 7500 feet AGL
Clouds: broken clouds at 7500 feet AGL
Weather: -RA  (light rain)

METAR text: NCRG 180930Z AUTO 09009KT 9999 -DZ FEW046/// SCT080/// BKN100/// 25/23 Q1013
Conditions at: NCRG (RAROTONGA COOK I, WS) observed 0930 UTC 18 April 2019
Temperature: 25.0°C (77°F)
Dewpoint: 23.0°C (73°F) [RH = 89%]
Pressure (altimeter): 29.91 inches Hg (1013.0 mb)
Winds: from the E (90 degrees) at 10 MPH (9 knots; 4.6 m/s)
Visibility: 6 or more miles (10+ km)
Ceiling: 10000 feet AGL
Clouds: few clouds at 4600 feet AGL
scattered clouds at 8000 feet AGL
broken clouds at 10000 feet AGL
Weather: -DZ  (light drizzle)

METAR text: NCRG 180900Z AUTO 08009KT 9999 BKN050/// 25/23 Q1013
Conditions at: NCRG (RAROTONGA COOK I, WS) observed 0900 UTC 18 April 2019
Temperature: 25.0°C (77°F)
Dewpoint: 23.0°C (73°F) [RH = 89%]
Pressure (altimeter): 29.91 inches Hg (1013.0 mb)
Winds: from the E (80 degrees) at 10 MPH (9 knots; 4.6 m/s)
Visibility: 6 or more miles (10+ km)
Ceiling: 5000 feet AGL
Clouds: broken clouds at 5000 feet AGL
Weather: no significant weather observed at this time

METAR text: NCRG 180830Z AUTO 11010KT 080V160 9999 SCT050/// 25/23 Q1013
Conditions at: NCRG (RAROTONGA COOK I, WS) observed 0830 UTC 18 April 2019
Temperature: 25.0°C (77°F)
Dewpoint: 23.0°C (73°F) [RH = 89%]
Pressure (altimeter): 29.91 inches Hg (1013.0 mb)
Winds: from the ESE (110 degrees) at 12 MPH (10 knots; 5.1 m/s)
Visibility: 6 or more miles (10+ km)
Ceiling: at least 12,000 feet AGL
Clouds: scattered clouds at 5000 feet AGL
Weather: no significant weather observed at this time

METAR text: NCRG 180800Z AUTO 14006KT 9999 FEW070/// 26/23 Q1013
Conditions at: NCRG (RAROTONGA COOK I, WS) observed 0800 UTC 18 April 2019
Temperature: 26.0°C (79°F)
Dewpoint: 23.0°C (73°F) [RH = 84%]
Pressure (altimeter): 29.91 inches Hg (1013.0 mb)
Winds: from the SE (140 degrees) at 7 MPH (6 knots; 3.1 m/s)
Visibility: 6 or more miles (10+ km)
Ceiling: at least 12,000 feet AGL
Clouds: few clouds at 7000 feet AGL
Weather: no significant weather observed at this time

METAR text: NCRG 180730Z AUTO 11008KT 080V150 9999 SCT070/// 25/23 Q1013
Conditions at: NCRG (RAROTONGA COOK I, WS) observed 0730 UTC 18 April 2019
Temperature: 25.0°C (77°F)
Dewpoint: 23.0°C (73°F) [RH = 89%]
Pressure (altimeter): 29.91 inches Hg (1013.0 mb)
Winds: from the ESE (110 degrees) at 9 MPH (8 knots; 4.1 m/s)
Visibility: 6 or more miles (10+ km)
Ceiling: at least 12,000 feet AGL
Clouds: scattered clouds at 7000 feet AGL
Weather: no significant weather observed at this time

METAR text: NCRG 180700Z AUTO 10007KT 060V150 9999 FEW039/// 25/23 Q1013
Conditions at: NCRG (RAROTONGA COOK I, WS) observed 0700 UTC 18 April 2019
Temperature: 25.0°C (77°F)
Dewpoint: 23.0°C (73°F) [RH = 89%]
Pressure (altimeter): 29.91 inches Hg (1013.0 mb)
Winds: from the E (100 degrees) at 8 MPH (7 knots; 3.6 m/s)
Visibility: 6 or more miles (10+ km)
Ceiling: at least 12,000 feet AGL
Clouds: few clouds at 3900 feet AGL
Weather: no significant weather observed at this time

METAR text: NCRG 180630Z AUTO 11007KT 040V160 9999 FEW070/// 26/23 Q1013
Conditions at: NCRG (RAROTONGA COOK I, WS) observed 0630 UTC 18 April 2019
Temperature: 26.0°C (79°F)
Dewpoint: 23.0°C (73°F) [RH = 84%]
Pressure (altimeter): 29.91 inches Hg (1013.0 mb)
Winds: from the ESE (110 degrees) at 8 MPH (7 knots; 3.6 m/s)
Visibility: 6 or more miles (10+ km)
Ceiling: at least 12,000 feet AGL
Clouds: few clouds at 7000 feet AGL
Weather: no significant weather observed at this time

Forecast for: NCRG (RAROTONGA COOK I, WS)
Text: TAF NCRG 191701Z 1918/2018 12015KT 9000 -SHRA SCT016 BKN050
Forecast period: 1800 UTC 19 April 2019 to 1800 UTC 20 April 2019
Forecast type: FROM: standard forecast or significant change
Winds: from the ESE (120 degrees) at 17 MPH (15 knots; 7.7 m/s)
Visibility: 6 miles (9 km)
Ceiling: 5000 feet AGL
Clouds: scattered clouds at 1600 feet AGL
broken clouds at 5000 feet AGL
Weather: -SHRA  (light rain showers)
Text: TEMPO 1918/1924 12015G30KT 4000 TSRA BKN015 FEW017CB
Forecast period: 1800 UTC 19 April 2019 to 0000 UTC 20 April 2019
Forecast type: TEMPORARY: The following changes expected for less than half the time period
Winds: from the ESE (120 degrees) at 17 MPH (15 knots; 7.7 m/s)
gusting to 34 MPH (30 knots; 15.4 m/s)
Visibility: 2.49 miles (4.01 km)
Ceiling: 1500 feet AGL
Clouds: broken clouds at 1500 feet AGL
few clouds at 1700 feet AGL
Weather: TSRA  (rain associated with thunderstorm(s))
Text: PROB40
Forecast period: 0000 to 1800 UTC 20 April 2019
Forecast type: TEMPORARY: The following changes expected for less than half the time period
Winds: from the ESE (120 degrees) at 17 MPH (15 knots; 7.7 m/s)
gusting to 34 MPH (30 knots; 15.4 m/s)
Visibility: missing
Ceiling: unknown
Clouds: missing
Weather: no significant weather forecast for this period